Hauptseite
METAR-TAF:

METAR-TAF

Flughäfen :

Flughafen Leipzig/Halle

Leipzig, Deutschland

Breite: 51-25N, Länge: 012-14E, Höhe: 144 m

Beobachtung

Neuester Wetterbericht von vor 32 Minuten, um 16:20 UTC
Wind 8 kt aus Süd
Temperatur 8°C
Luftfeuchtigkeit 61%
Luftdruck 1005 hPa
Sichtweite 10 km oder mehr
Durchbrochene Bewölkung in der Höhe von 3900 ft
Durchbrochene Bewölkung in der Höhe von 4600 ft

METAR: EDDP 241620Z AUTO 19008KT 9999 BKN039 BKN046 08/01 Q1005 NOSIG

Zeit: 17:52 (16:52 UTC)

Prognose

Neuester Wetterbericht von vor 5 Stunden und 52 Minuten, um 11:00 UTC
Gültige Prognose vom 24 um 12 UTC bis 25 um 12 UTC
Wind 13 kt aus Süd/Südwest, Böen bis zu 23 kt
Sichtweite 10 km oder mehr
Durchbrochene Bewölkung in der Höhe von 4500 ft
Übergehend zu
vom 24 um 15 UTC bis 24 um 18 UTC
Wind 5 kt aus Süd

TAF: EDDP 241100Z 2412/2512 20013G23KT 9999 BKN045 BECMG 2415/2418 18005KT

Wetterbeobachtungen und Prognosen von mehr als 4000 Flughäfen (METAR und TAF Bericht).

Die verfügbaren Stationen werden durch gelbe und rote Markierungen auf der Karte dargestellt.

Führen Sie die Maus auf sie, um den Namen der Station zu sehen.

Darauf klicken, um die Beobachtung von Wetterbeobachtungen und Prognosen zu sehen.

Um die Karte zu ändern : klicken Sie auf den grünen Tasten mit einem schwarzen Kreuz Zum Vergrößern, auf den grünen Button mit einem Gedankenstrich zu verkleinern, oder auf die grünen Pfeile für benachbarte Karten.


METAR-TAF: